Time;durP1;ratioP1;P1;durP2;ratioP2;P2;SDS_P1;SDS_P2;PMS_P1;PMS_P2;Temp;Humidity;BMP_temperature;BMP_pressure;BME280_temperature;BME280_humidity;BME280_pressure;Samples;Min_cycle;Max_cycle;Signal;HPM_P1;HPM_P2
2021/07/04 00:00:47;;;;;;;11.10;5.00;;;;;;;26.40;60.99;100577.28;5049971;28;20064;-67
2021/07/04 00:03:15;;;;;;;10.73;4.50;;;;;;;26.41;60.96;100576.31;5049441;28;20049;-67
2021/07/04 00:05:46;;;;;;;11.98;4.88;;;;;;;26.36;61.05;100577.53;5049769;28;20037;-67
2021/07/04 00:08:16;;;;;;;12.02;4.93;;;;;;;26.36;61.08;100575.69;5048841;28;20045;-67
2021/07/04 00:10:46;;;;;;;10.20;5.45;;;;;;;26.38;61.08;100572.91;5049623;28;20539;-67
2021/07/04 00:13:16;;;;;;;10.32;4.97;;;;;;;26.34;61.29;100571.31;5050266;28;20033;-67
2021/07/04 00:15:44;;;;;;;10.50;5.00;;;;;;;26.17;62.15;100577.56;5050555;28;20040;-66
2021/07/04 00:18:14;;;;;;;10.48;4.88;;;;;;;26.15;62.24;100576.78;5050166;28;20037;-65
2021/07/04 00:20:43;;;;;;;13.95;5.57;;;;;;;26.13;62.21;100584.97;5049949;28;20399;-66
2021/07/04 00:23:11;;;;;;;10.65;5.72;;;;;;;26.06;62.79;100575.41;5046262;28;20041;-66
2021/07/04 00:25:39;;;;;;;13.07;5.30;;;;;;;26.09;62.92;100580.69;5049263;28;20059;-67
2021/07/04 00:28:07;;;;;;;12.40;5.63;;;;;;;26.14;62.93;100577.72;5050141;28;20044;-66
2021/07/04 00:30:37;;;;;;;11.88;5.40;;;;;;;26.18;62.69;100577.50;5049917;28;20045;-66
2021/07/04 00:33:05;;;;;;;12.73;5.10;;;;;;;26.06;62.93;100580.81;5049614;28;20064;-66
2021/07/04 00:35:35;;;;;;;13.48;6.35;;;;;;;26.02;62.99;100575.66;5049516;28;20068;-66
2021/07/04 00:38:04;;;;;;;9.73;5.25;;;;;;;25.97;63.00;100584.00;5050243;28;20083;-66
2021/07/04 00:40:31;;;;;;;10.63;6.38;;;;;;;26.00;62.87;100577.53;5049825;28;20033;-67
2021/07/04 00:42:59;;;;;;;15.45;5.35;;;;;;;25.98;63.21;100574.06;5031488;28;20446;-66
2021/07/04 00:45:28;;;;;;;12.25;5.40;;;;;;;25.87;63.91;100580.00;5049259;28;20056;-66
2021/07/04 00:47:58;;;;;;;12.98;5.30;;;;;;;25.72;64.87;100581.69;5049993;28;20056;-66
2021/07/04 00:50:28;;;;;;;10.73;4.90;;;;;;;25.66;65.46;100586.50;5049444;28;20039;-66
2021/07/04 00:52:58;;;;;;;12.95;6.20;;;;;;;25.59;65.66;100587.75;5029664;28;20052;-66
2021/07/04 00:55:27;;;;;;;11.25;5.10;;;;;;;25.61;65.94;100593.94;5046153;28;20501;-67
2021/07/04 00:57:55;;;;;;;12.15;6.03;;;;;;;25.59;65.74;100585.06;5049086;28;20486;-66
2021/07/04 01:00:26;;;;;;;11.68;5.30;;;;;;;25.62;65.59;100584.88;5048036;28;20087;-66
2021/07/04 01:02:54;;;;;;;10.85;5.38;;;;;;;25.58;65.95;100596.81;5049610;28;20561;-66
2021/07/04 01:05:26;;;;;;;13.98;5.70;;;;;;;25.62;65.62;100591.19;5049247;28;20049;-66
2021/07/04 01:07:54;;;;;;;15.02;5.03;;;;;;;25.69;65.58;100589.03;5048477;28;20051;-66
2021/07/04 01:10:25;;;;;;;9.57;4.47;;;;;;;25.73;65.49;100591.50;5050964;28;20045;-66
2021/07/04 01:12:55;;;;;;;10.15;4.82;;;;;;;25.66;65.55;100587.38;5053091;28;20041;-66
2021/07/04 01:15:25;;;;;;;12.63;5.32;;;;;;;25.67;65.67;100588.22;5052045;28;20568;-67
2021/07/04 01:17:55;;;;;;;8.30;4.60;;;;;;;25.66;65.67;100586.50;5052982;28;20494;-66
2021/07/04 01:20:27;;;;;;;12.63;4.88;;;;;;;25.63;65.67;100583.94;5052902;28;20037;-66
2021/07/04 01:23:01;;;;;;;11.75;5.40;;;;;;;25.66;65.72;100590.09;5052853;28;20041;-67
2021/07/04 01:25:30;;;;;;;13.38;5.72;;;;;;;25.71;65.60;100577.22;5052633;28;20083;-66
2021/07/04 01:27:59;;;;;;;16.02;5.22;;;;;;;25.71;65.56;100581.75;5052593;28;20041;-67
2021/07/04 01:30:27;;;;;;;12.77;5.32;;;;;;;25.70;65.98;100585.38;5052877;28;20395;-66
2021/07/04 01:32:56;;;;;;;14.35;5.75;;;;;;;25.68;65.96;100581.88;5053136;28;20429;-66
2021/07/04 01:35:24;;;;;;;14.45;5.50;;;;;;;25.60;66.29;100586.81;5051996;28;21065;-66
2021/07/04 01:37:52;;;;;;;13.27;5.40;;;;;;;25.55;66.57;100597.81;5052955;28;20037;-66
2021/07/04 01:40:21;;;;;;;10.32;4.85;;;;;;;25.45;67.03;100591.09;5052483;28;20033;-66
2021/07/04 01:42:50;;;;;;;12.00;5.22;;;;;;;25.45;66.99;100592.94;5052100;28;20041;-66
2021/07/04 01:45:20;;;;;;;13.52;5.10;;;;;;;25.47;66.72;100591.88;5052892;28;20044;-66
2021/07/04 01:47:49;;;;;;;14.15;5.60;;;;;;;25.50;66.83;100593.56;5052569;28;20044;-67
2021/07/04 01:50:19;;;;;;;13.50;5.28;;;;;;;25.50;67.06;100596.28;5051512;28;20086;-67
2021/07/04 01:52:46;;;;;;;14.57;5.03;;;;;;;25.47;67.04;100604.56;5052271;28;20125;-66
2021/07/04 01:55:17;;;;;;;15.40;4.90;;;;;;;25.40;67.74;100596.72;5052256;28;20037;-65
2021/07/04 01:57:48;;;;;;;13.52;5.38;;;;;;;25.41;68.21;100603.00;5052630;28;20041;-67
2021/07/04 02:00:18;;;;;;;11.68;4.88;;;;;;;25.46;68.80;100600.09;5052425;28;20114;-66
2021/07/04 02:02:47;;;;;;;14.90;5.25;;;;;;;25.55;68.31;100608.63;5049689;28;20044;-67
2021/07/04 02:05:15;;;;;;;16.90;5.22;;;;;;;25.58;68.28;100604.94;5051996;28;20045;-66
2021/07/04 02:07:43;;;;;;;12.35;5.03;;;;;;;25.56;68.68;100617.59;5051714;28;20041;-66
2021/07/04 02:10:16;;;;;;;15.35;5.28;;;;;;;25.58;68.36;100615.75;5051856;28;20041;-66
2021/07/04 02:12:46;;;;;;;13.20;5.20;;;;;;;25.57;68.61;100613.94;5051282;28;20045;-67
2021/07/04 02:15:16;;;;;;;12.57;5.20;;;;;;;25.55;68.41;100618.56;5051772;28;20870;-68
2021/07/04 02:17:44;;;;;;;15.60;5.25;;;;;;;25.48;68.70;100619.78;5049910;28;20045;-66
2021/07/04 02:20:32;;;;;;;13.60;5.78;;;;;;;25.43;69.10;100628.13;5051602;28;20033;-66
2021/07/04 02:23:01;;;;;;;10.02;5.38;;;;;;;25.36;68.94;100629.38;5036271;28;20395;-66
2021/07/04 02:25:29;;;;;;;14.98;6.22;;;;;;;25.31;69.34;100621.50;5051461;28;20090;-66
2021/07/04 02:27:58;;;;;;;12.88;6.03;;;;;;;25.21;69.31;100622.88;5032066;28;20045;-67
2021/07/04 02:30:26;;;;;;;18.25;5.35;;;;;;;25.19;69.52;100621.19;5050832;28;20049;-66
2021/07/04 02:32:54;;;;;;;12.82;5.35;;;;;;;25.16;69.40;100626.72;5052112;28;20107;-66
2021/07/04 02:35:21;;;;;;;14.52;5.60;;;;;;;25.14;69.30;100628.66;5051325;28;20037;-66
2021/07/04 02:37:49;;;;;;;15.10;5.43;;;;;;;25.10;69.32;100627.03;5051270;28;20045;-66
2021/07/04 02:40:17;;;;;;;10.95;4.88;;;;;;;24.99;69.96;100628.41;5052045;28;20110;-66
2021/07/04 02:42:44;;;;;;;13.20;4.93;;;;;;;24.99;70.07;100625.72;5051239;28;20041;-66
2021/07/04 02:45:14;;;;;;;15.65;5.50;;;;;;;25.04;69.47;100636.28;5051101;28;20048;-67
2021/07/04 02:47:42;;;;;;;13.55;4.93;;;;;;;25.07;69.31;100633.47;5050818;28;20037;-66
2021/07/04 02:50:11;;;;;;;15.70;5.53;;;;;;;25.09;69.20;100641.47;5051794;28;20041;-66
2021/07/04 02:52:40;;;;;;;10.30;4.88;;;;;;;25.09;69.08;100639.66;5051302;28;20102;-66
2021/07/04 02:55:10;;;;;;;15.27;4.30;;;;;;;25.00;69.48;100640.09;5051151;28;20037;-66
2021/07/04 02:57:37;;;;;;;19.65;4.72;;;;;;;24.95;69.56;100644.81;5049973;28;20037;-66
2021/07/04 03:00:07;;;;;;;12.15;5.63;;;;;;;24.96;69.80;100644.75;5050057;28;20037;-66
2021/07/04 03:02:36;;;;;;;11.85;5.22;;;;;;;25.00;69.62;100640.09;5050523;28;20041;-66
2021/07/04 03:05:06;;;;;;;11.75;4.50;;;;;;;24.97;69.80;100642.91;5051243;28;20085;-66
2021/07/04 03:07:33;;;;;;;16.10;5.18;;;;;;;24.97;69.86;100648.31;5050955;28;20071;-67
2021/07/04 03:10:01;;;;;;;15.38;4.85;;;;;;;24.96;69.65;100652.84;5051428;28;20041;-66
2021/07/04 03:12:29;;;;;;;13.23;4.57;;;;;;;24.96;70.11;100657.38;5051175;28;20048;-66
2021/07/04 03:14:57;;;;;;;17.80;4.85;;;;;;;24.92;70.18;100661.16;5051303;28;20107;-66
2021/07/04 03:17:25;;;;;;;10.85;4.90;;;;;;;24.89;69.98;100656.78;5051171;28;20056;-65
2021/07/04 03:19:54;;;;;;;12.52;3.97;;;;;;;24.84;70.35;100656.06;5049024;28;20045;-66
2021/07/04 03:22:22;;;;;;;11.60;4.63;;;;;;;24.81;71.08;100658.06;5051197;28;20033;-67
2021/07/04 03:24:50;;;;;;;17.33;5.50;;;;;;;24.93;71.32;100657.53;5051129;28;20041;-66
2021/07/04 03:27:17;;;;;;;11.55;4.18;;;;;;;25.05;71.15;100665.06;5050464;28;20406;-66
2021/07/04 03:29:45;;;;;;;7.93;4.07;;;;;;;25.20;71.30;100661.69;5050845;28;20052;-66
2021/07/04 03:32:13;;;;;;;8.10;3.70;;;;;;;25.37;70.84;100661.75;5050385;28;20041;-66
2021/07/04 03:34:40;;;;;;;13.57;4.15;;;;;;;25.52;70.43;100664.69;5050810;28;20583;-66
2021/07/04 03:37:09;;;;;;;11.38;4.25;;;;;;;25.61;70.01;100665.13;5050860;28;20810;-66
2021/07/04 03:39:37;;;;;;;8.40;3.28;;;;;;;25.70;69.82;100664.69;5050726;28;20049;-66
2021/07/04 03:42:05;;;;;;;11.30;3.42;;;;;;;25.75;69.72;100669.88;5050054;28;20037;-66
2021/07/04 03:44:33;;;;;;;10.90;3.35;;;;;;;25.89;68.99;100671.91;5051194;28;20055;-66
2021/07/04 03:47:01;;;;;;;12.10;3.10;;;;;;;25.91;69.39;100678.13;5050573;28;20048;-66
2021/07/04 03:49:29;;;;;;;9.90;3.25;;;;;;;26.00;69.40;100677.66;5048800;28;20045;-67
2021/07/04 03:51:56;;;;;;;9.70;3.40;;;;;;;26.20;68.81;100682.97;5050402;28;20040;-66
2021/07/04 03:54:26;;;;;;;7.40;2.83;;;;;;;26.38;68.72;100683.91;5050497;28;20510;-66
2021/07/04 03:56:53;;;;;;;7.35;2.97;;;;;;;26.56;68.23;100689.25;5050302;28;20093;-67
2021/07/04 03:59:21;;;;;;;7.40;2.55;;;;;;;26.75;68.02;100700.00;5050187;28;20441;-66
2021/07/04 04:01:49;;;;;;;10.98;2.55;;;;;;;26.93;67.33;100698.19;5048610;28;20049;-67
2021/07/04 04:04:18;;;;;;;13.13;3.05;;;;;;;27.13;66.68;100697.13;5050308;28;20550;-67
2021/07/04 04:06:46;;;;;;;7.63;2.15;;;;;;;27.26;66.58;100699.09;5049132;28;20053;-67
2021/07/04 04:09:14;;;;;;;8.82;2.40;;;;;;;27.45;66.19;100693.53;5030204;28;20049;-67
2021/07/04 04:11:43;;;;;;;8.40;2.10;;;;;;;27.68;65.82;100695.00;5030623;28;20503;-66
2021/07/04 04:14:11;;;;;;;10.40;2.30;;;;;;;27.88;65.33;100694.75;5030484;28;20034;-66
2021/07/04 04:16:38;;;;;;;9.95;2.45;;;;;;;28.06;64.67;100695.53;5030159;28;20033;-67
2021/07/04 04:19:06;;;;;;;9.27;2.28;;;;;;;28.24;64.02;100697.19;5030405;28;20064;-66
2021/07/04 04:21:34;;;;;;;10.18;2.65;;;;;;;28.41;62.98;100697.09;5032206;28;20041;-67
2021/07/04 04:24:01;;;;;;;12.48;2.45;;;;;;;28.56;62.24;100703.44;5049623;28;20406;-66
2021/07/04 04:26:29;;;;;;;6.95;2.03;;;;;;;28.69;61.70;100704.44;5050415;28;20105;-67
2021/07/04 04:28:58;;;;;;;9.73;1.98;;;;;;;28.88;61.25;100701.53;5050528;28;20037;-66
2021/07/04 04:31:26;;;;;;;8.32;2.40;;;;;;;29.06;60.68;100704.97;5049647;28;20041;-66
2021/07/04 04:33:54;;;;;;;7.78;2.35;;;;;;;29.18;60.18;100705.06;5050647;28;20060;-66
2021/07/04 04:36:22;;;;;;;7.97;2.20;;;;;;;29.23;59.39;100707.50;5050147;28;20041;-66
2021/07/04 04:38:50;;;;;;;8.35;2.33;;;;;;;29.26;59.10;100710.91;5049672;28;20045;-66
2021/07/04 04:41:19;;;;;;;8.27;2.05;;;;;;;29.26;58.91;100713.63;5050009;28;20049;-67
2021/07/04 04:43:47;;;;;;;7.68;2.17;;;;;;;29.33;58.66;100714.13;5050605;28;20075;-66
2021/07/04 04:46:16;;;;;;;10.00;2.08;;;;;;;29.63;58.05;100714.03;5053811;28;20100;-66
2021/07/04 04:48:44;;;;;;;5.57;2.30;;;;;;;29.93;56.57;100712.06;5053030;28;20044;-67
2021/07/04 04:51:12;;;;;;;7.40;2.65;;;;;;;30.05;55.83;100713.13;5053722;28;20490;-67
2021/07/04 04:53:40;;;;;;;7.25;1.70;;;;;;;30.21;55.12;100716.56;5053994;28;20498;-66
2021/07/04 04:56:07;;;;;;;8.60;2.47;;;;;;;30.55;54.07;100719.78;5053849;28;20581;-66
2021/07/04 04:58:35;;;;;;;5.57;1.90;;;;;;;30.87;52.87;100718.44;5053417;28;20506;-66
2021/07/04 05:01:04;;;;;;;8.85;2.05;;;;;;;31.08;51.36;100722.41;5053954;28;20044;-67
2021/07/04 05:03:33;;;;;;;7.72;1.73;;;;;;;31.34;50.31;100717.84;5053552;28;20372;-67
2021/07/04 05:06:01;;;;;;;6.25;1.95;;;;;;;31.67;50.11;100722.75;5052506;28;20048;-67
2021/07/04 05:08:29;;;;;;;8.23;1.80;;;;;;;31.72;49.84;100716.94;5053577;28;20036;-66
2021/07/04 05:10:57;;;;;;;6.05;1.95;;;;;;;31.86;49.99;100727.75;5053925;28;20490;-67
2021/07/04 05:13:25;;;;;;;5.55;2.20;;;;;;;32.04;49.03;100729.97;5053005;28;20169;-67
2021/07/04 05:15:53;;;;;;;9.60;1.98;;;;;;;32.22;48.66;100733.25;5053677;28;20041;-67
2021/07/04 05:18:20;;;;;;;4.13;1.75;;;;;;;32.43;48.14;100725.25;5052807;28;20099;-67
2021/07/04 05:20:49;;;;;;;7.53;1.80;;;;;;;32.64;47.53;100726.38;5053071;28;20033;-68
2021/07/04 05:23:17;;;;;;;8.88;1.92;;;;;;;32.72;46.91;100731.28;5053089;28;20048;-67
2021/07/04 05:25:46;;;;;;;6.20;2.00;;;;;;;32.92;46.03;100727.88;5053290;28;20064;-67
2021/07/04 05:28:13;;;;;;;7.55;1.60;;;;;;;33.18;45.28;100721.22;5052986;28;20043;-67
2021/07/04 05:30:41;;;;;;;6.75;1.75;;;;;;;33.37;44.61;100731.59;5053235;28;20041;-66
2021/07/04 05:33:09;;;;;;;8.30;2.25;;;;;;;33.61;44.01;100737.81;5052993;28;20883;-67
2021/07/04 05:35:38;;;;;;;7.32;2.20;;;;;;;33.96;42.96;100734.97;5053227;28;20064;-67
2021/07/04 05:38:16;;;;;;;5.03;1.70;;;;;;;34.30;42.41;100738.56;5053146;28;20407;-67
2021/07/04 05:40:44;;;;;;;6.22;1.83;;;;;;;34.49;41.35;100739.75;5052585;28;20056;-67
2021/07/04 05:43:12;;;;;;;7.50;1.95;;;;;;;34.60;40.78;100745.19;5052568;28;20124;-67
2021/07/04 05:45:40;;;;;;;5.63;2.05;;;;;;;34.84;40.29;100745.88;5052907;28;20095;-66
2021/07/04 05:48:08;;;;;;;5.22;1.92;;;;;;;35.03;39.60;100746.03;5052229;28;20067;-66
2021/07/04 05:50:36;;;;;;;5.88;1.73;;;;;;;35.11;39.23;100753.59;5052894;28;20037;-66
2021/07/04 05:53:04;;;;;;;6.97;2.13;;;;;;;35.24;38.61;100743.31;5053063;28;20036;-67
2021/07/04 05:55:34;;;;;;;5.82;2.00;;;;;;;35.38;38.16;100742.94;5051399;28;20049;-66
2021/07/04 05:58:02;;;;;;;6.50;2.30;;;;;;;35.24;38.22;100742.44;5044860;28;20056;-67
2021/07/04 06:00:29;;;;;;;4.57;1.85;;;;;;;35.29;37.50;100741.03;5052572;28;20049;-67
2021/07/04 06:02:57;;;;;;;7.43;1.88;;;;;;;35.29;37.00;100749.25;5052407;28;20136;-67
2021/07/04 06:05:25;;;;;;;6.32;2.08;;;;;;;35.35;36.57;100740.47;5052346;28;20040;-68
2021/07/04 06:07:53;;;;;;;7.32;2.20;;;;;;;35.30;36.72;100744.66;5052425;28;20132;-67
2021/07/04 06:10:20;;;;;;;4.10;1.80;;;;;;;35.44;36.52;100745.16;5052781;28;20127;-67
2021/07/04 06:12:49;;;;;;;4.35;1.73;;;;;;;35.64;35.71;100748.88;5052455;28;20047;-67
2021/07/04 06:15:17;;;;;;;6.28;2.20;;;;;;;35.69;35.21;100751.22;5051865;28;20037;-67
2021/07/04 06:17:45;;;;;;;5.43;1.50;;;;;;;35.85;34.96;100748.84;5052063;28;20057;-67
2021/07/04 06:20:15;;;;;;;6.32;1.70;;;;;;;35.92;35.16;100750.03;5052033;28;20576;-66
2021/07/04 06:22:42;;;;;;;5.93;1.60;;;;;;;35.98;34.91;100749.47;5051856;28;20047;-67
2021/07/04 06:25:12;;;;;;;7.60;2.53;;;;;;;35.95;34.41;100747.00;5052311;28;20060;-67
2021/07/04 06:27:40;;;;;;;5.90;2.35;;;;;;;35.98;34.13;100749.47;5051921;28;20048;-67
2021/07/04 06:30:11;;;;;;;6.07;1.65;;;;;;;36.04;33.67;100748.06;5051797;28;20048;-67
2021/07/04 06:32:40;;;;;;;7.63;1.73;;;;;;;36.09;34.24;100743.00;5051985;28;20048;-66
2021/07/04 06:35:10;;;;;;;5.22;1.92;;;;;;;35.99;32.76;100751.22;5051989;28;20071;-66
2021/07/04 06:37:38;;;;;;;3.47;1.80;;;;;;;36.10;32.87;100745.63;5051793;28;20053;-67
2021/07/04 06:40:09;;;;;;;3.88;1.70;;;;;;;36.20;32.16;100745.66;5051373;28;20049;-66
2021/07/04 06:42:37;;;;;;;5.47;1.60;;;;;;;36.22;32.69;100743.66;5051834;28;20049;-67
2021/07/04 06:45:05;;;;;;;5.35;2.10;;;;;;;36.28;32.40;100735.69;5051838;28;20049;-66
2021/07/04 06:47:34;;;;;;;4.82;1.90;;;;;;;36.27;31.58;100742.22;5051701;28;20041;-67
2021/07/04 06:50:02;;;;;;;4.47;1.70;;;;;;;36.28;31.06;100745.81;5031571;28;20045;-66
2021/07/04 06:52:30;;;;;;;3.08;1.60;;;;;;;36.32;31.08;100752.78;5036143;28;20045;-66
2021/07/04 06:54:58;;;;;;;4.95;1.90;;;;;;;36.39;30.59;100750.31;5051893;28;20041;-66
2021/07/04 06:57:28;;;;;;;3.40;1.58;;;;;;;36.34;30.17;100748.00;5050722;28;20087;-66
2021/07/04 06:59:58;;;;;;;5.10;2.08;;;;;;;36.29;30.21;100748.44;5050593;28;20048;-66
2021/07/04 07:02:27;;;;;;;3.05;1.42;;;;;;;36.23;28.92;100748.16;5051672;28;20037;-66
2021/07/04 07:04:56;;;;;;;4.55;1.67;;;;;;;36.20;27.69;100742.91;5050964;28;20441;-67
2021/07/04 07:07:24;;;;;;;4.18;1.92;;;;;;;36.18;28.03;100743.03;5049410;28;20506;-66
2021/07/04 07:09:52;;;;;;;4.97;1.80;;;;;;;36.20;28.57;100753.91;5051432;28;20044;-67
2021/07/04 07:12:20;;;;;;;2.78;1.58;;;;;;;36.18;27.87;100745.78;5051268;28;20103;-67
2021/07/04 07:14:48;;;;;;;3.42;1.55;;;;;;;36.29;27.30;100740.19;5051213;28;20060;-67
2021/07/04 07:17:16;;;;;;;6.40;1.95;;;;;;;36.36;27.86;100743.25;5050578;28;20448;-66
2021/07/04 07:19:44;;;;;;;5.68;1.92;;;;;;;36.39;27.95;100750.31;5050631;28;20051;-67
2021/07/04 07:22:13;;;;;;;4.35;1.80;;;;;;;36.38;28.92;100745.81;5050959;28;20045;-67
2021/07/04 07:24:40;;;;;;;4.50;2.10;;;;;;;36.44;28.85;100746.13;5031062;28;20103;-67
2021/07/04 07:27:08;;;;;;;6.90;1.73;;;;;;;36.42;28.87;100748.19;5031026;28;20045;-67
2021/07/04 07:29:36;;;;;;;4.13;2.10;;;;;;;36.58;28.20;100739.34;5031498;28;20072;-67
2021/07/04 07:32:04;;;;;;;4.22;1.80;;;;;;;36.68;28.85;100745.75;5030922;28;20041;-66
2021/07/04 07:34:32;;;;;;;4.38;1.73;;;;;;;36.86;29.43;100746.78;5030062;28;20054;-67
2021/07/04 07:36:59;;;;;;;3.53;1.73;;;;;;;37.00;29.98;100756.47;5033732;28;20045;-66
2021/07/04 07:39:28;;;;;;;4.28;1.75;;;;;;;37.20;29.21;100754.59;5050191;28;20053;-68
2021/07/04 07:41:56;;;;;;;3.80;1.73;;;;;;;37.05;29.00;100746.75;5050988;28;20041;-66
2021/07/04 07:44:24;;;;;;;3.85;1.73;;;;;;;36.89;29.13;100748.38;5048667;28;20491;-67
2021/07/04 07:46:51;;;;;;;5.72;2.33;;;;;;;36.85;27.97;100749.66;5049539;28;20044;-67
2021/07/04 07:49:19;;;;;;;4.78;1.73;;;;;;;36.83;28.08;100762.69;5050417;28;20441;-67
2021/07/04 07:51:49;;;;;;;4.95;1.75;;;;;;;36.72;27.13;100760.97;5049733;28;20045;-67
2021/07/04 07:54:17;;;;;;;2.53;1.77;;;;;;;36.72;26.81;100755.47;5049711;28;20167;-66
2021/07/04 07:56:47;;;;;;;4.60;1.83;;;;;;;36.77;27.22;100764.16;5050424;28;20041;-66
2021/07/04 07:59:16;;;;;;;3.50;1.60;;;;;;;36.97;27.48;100768.63;5048501;28;20052;-67
2021/07/04 08:01:44;;;;;;;3.45;1.70;;;;;;;37.08;27.00;100765.75;5046079;28;20043;-66
2021/07/04 08:04:13;;;;;;;3.08;1.70;;;;;;;37.03;26.09;100762.53;5048334;28;20037;-67
2021/07/04 08:06:41;;;;;;;5.00;1.80;;;;;;;36.96;26.48;100766.88;5049200;28;20052;-67
2021/07/04 08:09:09;;;;;;;4.78;1.83;;;;;;;37.06;26.75;100761.38;5048139;28;20111;-66
2021/07/04 08:11:37;;;;;;;3.25;1.80;;;;;;;37.11;27.15;100770.97;5048960;28;20037;-66
2021/07/04 08:14:06;;;;;;;4.28;3.03;;;;;;;37.10;26.21;100782.97;5047855;28;20052;-66
2021/07/04 08:16:34;;;;;;;4.10;2.10;;;;;;;36.99;27.09;100772.13;5049027;28;20049;-66
2021/07/04 08:19:03;;;;;;;3.42;1.55;;;;;;;37.03;27.44;100757.03;5051578;28;20044;-66
2021/07/04 08:21:31;;;;;;;4.53;1.90;;;;;;;36.97;27.95;100763.13;5053232;28;20093;-67
2021/07/04 08:23:59;;;;;;;4.38;1.60;;;;;;;37.04;28.55;100772.53;5054458;28;20041;-66
2021/07/04 08:26:27;;;;;;;4.97;2.25;;;;;;;37.01;27.18;100750.81;5053001;28;20029;-65
2021/07/04 08:28:55;;;;;;;4.57;1.90;;;;;;;36.72;28.01;100759.09;5054020;28;20048;-65
2021/07/04 08:31:26;;;;;;;4.00;1.83;;;;;;;36.84;28.59;100757.06;5053394;28;20033;-66
2021/07/04 08:33:55;;;;;;;2.85;1.77;;;;;;;36.92;28.85;100754.44;5053857;28;20063;-66
2021/07/04 08:36:25;;;;;;;3.03;1.70;;;;;;;37.03;28.66;100770.81;5053426;28;20075;-66
2021/07/04 08:38:53;;;;;;;7.32;2.20;;;;;;;37.25;28.02;100763.28;5053829;28;20048;-67
2021/07/04 08:41:20;;;;;;;4.60;1.98;;;;;;;37.28;26.36;100768.50;5052601;28;20111;-66
2021/07/04 08:43:49;;;;;;;10.05;2.92;;;;;;;37.08;26.87;100763.00;5053157;28;20437;-66
2021/07/04 08:46:17;;;;;;;6.63;2.38;;;;;;;37.30;26.58;100770.06;5051696;28;20033;-66
2021/07/04 08:48:46;;;;;;;4.85;2.40;;;;;;;37.10;27.06;100760.06;5051965;28;20041;-66
2021/07/04 08:51:14;;;;;;;3.92;1.85;;;;;;;37.26;27.61;100770.53;5052081;28;20041;-66
2021/07/04 08:53:42;;;;;;;5.70;2.20;;;;;;;37.15;27.44;100763.31;5053372;28;20045;-66
2021/07/04 08:56:09;;;;;;;3.88;1.88;;;;;;;37.17;27.61;100760.38;5053505;28;20053;-66
2021/07/04 08:58:37;;;;;;;4.13;2.00;;;;;;;37.31;27.46;100770.94;5053345;28;20107;-66
2021/07/04 09:01:16;;;;;;;7.03;2.20;;;;;;;37.47;27.51;100762.94;5053435;28;20498;-65
2021/07/04 09:03:48;;;;;;;3.33;2.00;;;;;;;37.57;26.72;100765.66;5053295;28;20049;-66
2021/07/04 09:06:16;;;;;;;4.90;2.00;;;;;;;37.56;25.40;100763.91;5053629;28;20032;-66
2021/07/04 09:08:44;;;;;;;4.45;2.33;;;;;;;37.26;25.97;100768.66;5053910;28;20052;-66
2021/07/04 09:11:14;;;;;;;4.80;1.52;;;;;;;37.47;26.89;100766.56;5035054;28;20041;-65
2021/07/04 09:13:45;;;;;;;6.90;2.03;;;;;;;37.51;27.75;100772.63;5033400;28;20053;-66
2021/07/04 09:16:15;;;;;;;3.15;2.00;;;;;;;37.61;26.87;100759.75;5033239;28;20037;-65
2021/07/04 09:18:43;;;;;;;5.47;1.80;;;;;;;37.53;26.80;100765.09;5033217;28;20566;-66
2021/07/04 09:21:31;;;;;;;3.05;2.00;;;;;;;37.54;27.35;100769.59;5033312;28;20095;-66
2021/07/04 09:23:59;;;;;;;2.80;1.73;;;;;;;37.49;27.13;100770.03;5032915;28;20049;-67
2021/07/04 09:26:41;;;;;;;3.90;2.45;;;;;;;37.47;26.29;100757.44;5032823;28;20040;-65
2021/07/04 09:29:11;;;;;;;5.70;2.15;;;;;;;37.65;25.75;100763.06;5049190;28;20449;-66
2021/07/04 09:31:40;;;;;;;4.63;2.03;;;;;;;37.68;25.36;100763.63;5051236;28;20048;-66
2021/07/04 09:34:09;;;;;;;5.95;2.00;;;;;;;37.81;25.38;100758.63;5053006;28;20060;-65
2021/07/04 09:36:57;;;;;;;10.15;2.40;;;;;;;37.77;25.87;100759.97;5052944;28;20478;-66
2021/07/04 09:39:24;;;;;;;3.60;1.80;;;;;;;37.71;26.15;100755.06;5046892;28;20044;-66
2021/07/04 09:42:07;;;;;;;5.45;1.85;;;;;;;37.78;24.67;100767.22;5051687;28;20044;-68
2021/07/04 09:44:34;;;;;;;5.32;2.20;;;;;;;37.81;24.80;100757.78;5052849;28;20048;-66
2021/07/04 09:47:14;;;;;;;4.57;2.00;;;;;;;37.82;24.80;100748.47;5052084;28;20048;-66
2021/07/04 09:49:46;;;;;;;4.20;1.98;;;;;;;37.66;25.55;100746.38;5052152;28;20052;-66
2021/07/04 09:52:19;;;;;;;5.75;1.90;;;;;;;37.67;25.31;100747.25;5051787;28;20037;-65
2021/07/04 09:55:00;;;;;;;4.17;2.30;;;;;;;37.49;25.65;100750.72;5052322;28;20045;-65
2021/07/04 09:57:29;;;;;;;6.20;2.10;;;;;;;37.40;26.97;100754.41;5052253;28;20190;-65
2021/07/04 10:00:17;;;;;;;4.80;1.98;;;;;;;37.40;27.41;100750.78;5051074;28;20037;-67
2021/07/04 10:03:06;;;;;;;7.45;2.20;;;;;;;37.25;27.22;100753.13;5048779;28;20091;-67
2021/07/04 10:05:34;;;;;;;5.05;1.83;;;;;;;37.37;28.22;100751.94;5048225;28;20049;-66
2021/07/04 10:08:18;;;;;;;4.45;2.00;;;;;;;37.41;28.35;100749.78;5052123;28;20498;-66
2021/07/04 10:10:46;;;;;;;6.72;2.00;;;;;;;37.35;28.07;100748.44;5052346;28;20037;-66
2021/07/04 10:13:13;;;;;;;4.03;1.85;;;;;;;37.25;27.61;100752.25;5052728;28;20033;-67
2021/07/04 10:15:42;;;;;;;4.65;2.13;;;;;;;37.27;27.22;100741.97;5052045;28;20045;-67
2021/07/04 10:18:10;;;;;;;4.63;2.03;;;;;;;37.17;27.49;100741.97;5051604;28;20041;-67
2021/07/04 10:20:38;;;;;;;4.00;1.83;;;;;;;37.08;27.85;100737.34;5052457;28;20069;-66
2021/07/04 10:23:10;;;;;;;7.00;2.72;;;;;;;36.90;28.13;100725.31;5051530;28;20463;-66
2021/07/04 10:25:37;;;;;;;6.47;2.95;;;;;;;36.80;28.16;100739.09;5049654;28;20127;-67
2021/07/04 10:28:06;;;;;;;6.25;2.40;;;;;;;36.73;27.70;100727.78;5051466;28;20449;-67
2021/07/04 10:30:35;;;;;;;4.13;2.30;;;;;;;36.73;28.00;100729.69;5048356;28;20532;-66
2021/07/04 10:33:13;;;;;;;4.78;2.53;;;;;;;36.69;28.28;100733.75;5049571;28;20048;-68
2021/07/04 10:35:52;;;;;;;4.88;2.20;;;;;;;36.69;28.62;100733.75;5049713;28;20049;-67
2021/07/04 10:38:21;;;;;;;5.80;2.40;;;;;;;36.64;28.53;100736.91;5051705;28;20051;-67
2021/07/04 10:40:49;;;;;;;3.28;2.20;;;;;;;36.63;27.23;100724.13;5050517;28;20041;-67
2021/07/04 10:43:51;;;;;;;4.15;2.15;;;;;;;36.12;26.54;100728.94;5051106;28;20184;-67
2021/07/04 10:46:19;;;;;;;7.28;2.63;;;;;;;36.14;27.13;100724.19;5048706;28;20334;-67
2021/07/04 10:48:57;;;;;;;7.10;2.92;;;;;;;36.20;27.86;100721.78;5050572;28;20048;-67
2021/07/04 10:51:26;;;;;;;5.35;2.05;;;;;;;36.34;27.46;100717.75;5050967;28;20420;-68
2021/07/04 10:53:58;;;;;;;6.30;3.05;;;;;;;36.15;27.94;100712.19;5048624;28;20049;-67
2021/07/04 10:56:42;;;;;;;4.65;2.30;;;;;;;36.27;28.35;100725.69;5050301;28;20120;-67
2021/07/04 10:59:11;;;;;;;5.07;2.70;;;;;;;36.54;27.95;100727.75;5049176;28;20048;-67
2021/07/04 11:01:50;;;;;;;6.25;2.28;;;;;;;36.77;28.50;100710.97;5048545;28;20037;-67
2021/07/04 11:04:54;;;;;;;5.63;2.70;;;;;;;36.77;29.55;100717.34;5048398;28;20037;-66
2021/07/04 11:07:22;;;;;;;5.47;2.63;;;;;;;36.72;29.65;100715.03;5028422;28;20041;-66
2021/07/04 11:10:20;;;;;;;4.72;2.35;;;;;;;36.66;30.70;100725.75;5028587;28;20065;-66
2021/07/04 11:12:49;;;;;;;5.72;2.53;;;;;;;36.84;30.05;100720.38;5050596;28;20095;-66
2021/07/04 11:15:27;;;;;;;8.68;2.72;;;;;;;37.18;29.99;100720.81;5051074;28;20112;-66
2021/07/04 11:18:09;;;;;;;7.70;2.33;;;;;;;37.40;29.82;100720.47;5036165;28;20052;-66
2021/07/04 11:20:57;;;;;;;7.05;2.70;;;;;;;37.56;29.41;100722.56;5048950;28;20044;-66
2021/07/04 11:23:27;;;;;;;4.55;2.30;;;;;;;37.66;29.42;100727.09;5033012;28;20044;-66
2021/07/04 11:25:59;;;;;;;5.30;2.15;;;;;;;37.83;29.59;100720.75;5038024;28;21638;-66
2021/07/04 11:28:29;;;;;;;4.28;2.00;;;;;;;37.76;29.54;100722.38;5032486;28;20048;-66
2021/07/04 11:31:24;;;;;;;5.20;2.08;;;;;;;38.01;29.37;100722.72;5038511;28;20071;-66
2021/07/04 11:33:52;;;;;;;6.05;2.55;;;;;;;38.11;29.35;100707.84;5038295;28;20098;-67